# Tabular Observed and Forecast Hydrograph Information
#
# Location: Klamath River - Orleans (ONSC1)
#
# File Generation Time: 05/04/2026 at 06:53 AM PDT
# Data Interval: 1 Hour
#
# Most Recent Date & Time of Maximum Observed: 04/29/2026 at 06:00 AM PDT
# Maximum Observed Stage: 4.94 Feet
# Maximum Observed Flow: 5090 cfs
#
# Earliest Date & Time of Maximum Forecast: 05/04/2026 at 07:00 AM PDT
# Maximum Forecast Stage: 4.72 Feet
# Maximum Forecast Flow: 4776 cfs
#
# OBSERVED
#
# Date & Time (Local) Stage (Feet) Flow (cfs) Trend Observed Status
# ---------------------------------------------------------------------------------
04/29/2026 06 AM PDT 4.94 5090 Normal
04/29/2026 07 AM PDT 4.93 5075 - Normal
04/29/2026 08 AM PDT 4.90 5032 - Normal
04/29/2026 09 AM PDT 4.92 5061 + Normal
04/29/2026 10 AM PDT 4.90 5032 - Normal
04/29/2026 11 AM PDT 4.91 5047 + Normal
04/29/2026 12 PM PDT 4.89 5018 - Normal
04/29/2026 01 PM PDT 4.87 4989 - Normal
04/29/2026 02 PM PDT 4.89 5018 + Normal
04/29/2026 03 PM PDT 4.89 5018 0 Normal
04/29/2026 04 PM PDT 4.90 5032 + Normal
04/29/2026 05 PM PDT 4.91 5047 + Normal
04/29/2026 06 PM PDT 4.90 5032 - Normal
04/29/2026 07 PM PDT 4.89 5018 - Normal
04/29/2026 08 PM PDT 4.87 4989 - Normal
04/29/2026 09 PM PDT 4.89 5018 + Normal
04/29/2026 10 PM PDT 4.86 4975 - Normal
04/29/2026 11 PM PDT 4.89 5018 + Normal
04/30/2026 12 AM PDT 4.83 4932 - Normal
04/30/2026 01 AM PDT 4.86 4975 + Normal
04/30/2026 02 AM PDT 4.85 4961 - Normal
04/30/2026 03 AM PDT 4.84 4946 - Normal
04/30/2026 04 AM PDT 4.84 4946 0 Normal
04/30/2026 05 AM PDT 4.84 4946 0 Normal
04/30/2026 06 AM PDT 4.84 4946 0 Normal
04/30/2026 07 AM PDT 4.82 4918 - Normal
04/30/2026 08 AM PDT 4.85 4961 + Normal
04/30/2026 09 AM PDT 4.84 4946 - Normal
04/30/2026 10 AM PDT 4.82 4918 - Normal
04/30/2026 11 AM PDT 4.81 4904 - Normal
04/30/2026 12 PM PDT 4.82 4918 + Normal
04/30/2026 01 PM PDT 4.81 4904 - Normal
04/30/2026 02 PM PDT 4.83 4932 + Normal
04/30/2026 03 PM PDT 4.82 4918 - Normal
04/30/2026 04 PM PDT 4.83 4932 + Normal
04/30/2026 05 PM PDT 4.81 4904 - Normal
04/30/2026 06 PM PDT 4.83 4932 + Normal
04/30/2026 07 PM PDT 4.83 4932 0 Normal
04/30/2026 08 PM PDT 4.82 4918 - Normal
04/30/2026 09 PM PDT 4.82 4918 0 Normal
04/30/2026 10 PM PDT 4.80 4889 - Normal
04/30/2026 11 PM PDT 4.80 4889 0 Normal
05/01/2026 12 AM PDT 4.78 4861 - Normal
05/01/2026 01 AM PDT 4.78 4861 0 Normal
05/01/2026 02 AM PDT 4.78 4861 0 Normal
05/01/2026 03 AM PDT 4.78 4861 0 Normal
05/01/2026 04 AM PDT 4.78 4861 0 Normal
05/01/2026 05 AM PDT 4.78 4861 0 Normal
05/01/2026 06 AM PDT 4.77 4847 - Normal
05/01/2026 07 AM PDT 4.77 4847 0 Normal
05/01/2026 08 AM PDT 4.77 4847 0 Normal
05/01/2026 09 AM PDT 4.77 4847 0 Normal
05/01/2026 10 AM PDT 4.76 4833 - Normal
05/01/2026 11 AM PDT 4.77 4847 + Normal
05/01/2026 12 PM PDT 4.78 4861 + Normal
05/01/2026 01 PM PDT 4.77 4847 - Normal
05/01/2026 02 PM PDT 4.77 4847 0 Normal
05/01/2026 03 PM PDT 4.77 4847 0 Normal
05/01/2026 04 PM PDT 4.78 4861 + Normal
05/01/2026 05 PM PDT 4.77 4847 - Normal
05/01/2026 06 PM PDT 4.77 4847 0 Normal
05/01/2026 07 PM PDT 4.78 4861 + Normal
05/01/2026 08 PM PDT 4.80 4889 + Normal
05/01/2026 09 PM PDT 4.77 4847 - Normal
05/01/2026 10 PM PDT 4.77 4847 0 Normal
05/01/2026 11 PM PDT 4.75 4819 - Normal
05/02/2026 12 AM PDT 4.76 4833 + Normal
05/02/2026 01 AM PDT 4.76 4833 0 Normal
05/02/2026 02 AM PDT 4.74 4804 - Normal
05/02/2026 03 AM PDT 4.76 4833 + Normal
05/02/2026 04 AM PDT 4.75 4819 - Normal
05/02/2026 05 AM PDT 4.74 4804 - Normal
05/02/2026 06 AM PDT 4.74 4804 0 Normal
05/02/2026 07 AM PDT 4.74 4804 0 Normal
05/02/2026 08 AM PDT 4.75 4819 + Normal
05/02/2026 09 AM PDT 4.75 4819 0 Normal
05/02/2026 10 AM PDT 4.76 4833 + Normal
05/02/2026 11 AM PDT 4.75 4819 - Normal
05/02/2026 12 PM PDT 4.74 4804 - Normal
05/02/2026 01 PM PDT 4.75 4819 + Normal
05/02/2026 02 PM PDT 4.75 4819 0 Normal
05/02/2026 03 PM PDT 4.74 4804 - Normal
05/02/2026 04 PM PDT 4.76 4833 + Normal
05/02/2026 05 PM PDT 4.76 4833 0 Normal
05/02/2026 06 PM PDT 4.74 4804 - Normal
05/02/2026 07 PM PDT 4.75 4819 + Normal
05/02/2026 08 PM PDT 4.73 4790 - Normal
05/02/2026 09 PM PDT 4.74 4804 + Normal
05/02/2026 10 PM PDT 4.74 4804 0 Normal
05/02/2026 11 PM PDT 4.74 4804 0 Normal
05/03/2026 12 AM PDT 4.73 4790 - Normal
05/03/2026 01 AM PDT 4.73 4790 0 Normal
05/03/2026 02 AM PDT 4.73 4790 0 Normal
05/03/2026 03 AM PDT 4.72 4776 - Normal
05/03/2026 04 AM PDT 4.71 4762 - Normal
05/03/2026 05 AM PDT 4.71 4762 0 Normal
05/03/2026 06 AM PDT 4.71 4762 0 Normal
05/03/2026 07 AM PDT 4.72 4776 + Normal
05/03/2026 08 AM PDT 4.71 4762 - Normal
05/03/2026 09 AM PDT 4.74 4804 + Normal
05/03/2026 10 AM PDT 4.73 4790 - Normal
05/03/2026 11 AM PDT 4.75 4819 + Normal
05/03/2026 12 PM PDT 4.74 4804 - Normal
05/03/2026 01 PM PDT 4.75 4819 + Normal
05/03/2026 02 PM PDT 4.74 4804 - Normal
05/03/2026 03 PM PDT 4.75 4819 + Normal
05/03/2026 04 PM PDT 4.74 4804 - Normal
05/03/2026 05 PM PDT 4.75 4819 + Normal
05/03/2026 06 PM PDT 4.74 4804 - Normal
05/03/2026 07 PM PDT 4.75 4819 + Normal
05/03/2026 08 PM PDT 4.74 4804 - Normal
05/03/2026 09 PM PDT 4.76 4833 + Normal
05/03/2026 10 PM PDT 4.74 4804 - Normal
05/03/2026 11 PM PDT 4.75 4819 + Normal
05/04/2026 12 AM PDT 4.74 4804 - Normal
05/04/2026 01 AM PDT 4.72 4776 - Normal
05/04/2026 02 AM PDT 4.74 4804 + Normal
05/04/2026 03 AM PDT 4.73 4790 - Normal
05/04/2026 04 AM PDT 4.73 4790 0 Normal
05/04/2026 05 AM PDT 4.73 4790 0 Normal
05/04/2026 06 AM PDT 4.72 4776 - Normal
#
# FORECAST
#
# Date & Time (Local) Stage (Feet) Flow (cfs) Trend Forecast Status
# ---------------------------------------------------------------------------------
05/04/2026 07 AM PDT 4.72 4776 Normal
05/04/2026 08 AM PDT 4.72 4776 0 Normal
05/04/2026 09 AM PDT 4.72 4776 0 Normal
05/04/2026 10 AM PDT 4.72 4776 0 Normal
05/04/2026 11 AM PDT 4.72 4776 0 Normal
05/04/2026 12 PM PDT 4.71 4762 - Normal
05/04/2026 01 PM PDT 4.71 4762 0 Normal
05/04/2026 02 PM PDT 4.71 4762 0 Normal
05/04/2026 03 PM PDT 4.70 4748 - Normal
05/04/2026 04 PM PDT 4.70 4748 0 Normal
05/04/2026 05 PM PDT 4.70 4748 0 Normal
05/04/2026 06 PM PDT 4.70 4748 0 Normal
05/04/2026 07 PM PDT 4.69 4734 - Normal
05/04/2026 08 PM PDT 4.69 4734 0 Normal
05/04/2026 09 PM PDT 4.69 4734 0 Normal
05/04/2026 10 PM PDT 4.69 4734 0 Normal
05/04/2026 11 PM PDT 4.69 4734 0 Normal
05/05/2026 12 AM PDT 4.69 4734 0 Normal
05/05/2026 01 AM PDT 4.69 4734 0 Normal
05/05/2026 02 AM PDT 4.68 4720 - Normal
05/05/2026 03 AM PDT 4.68 4720 0 Normal
05/05/2026 04 AM PDT 4.68 4720 0 Normal
05/05/2026 05 AM PDT 4.68 4720 0 Normal
05/05/2026 06 AM PDT 4.68 4720 0 Normal
05/05/2026 07 AM PDT 4.67 4706 - Normal
05/05/2026 08 AM PDT 4.67 4706 0 Normal
05/05/2026 09 AM PDT 4.67 4706 0 Normal
05/05/2026 10 AM PDT 4.67 4706 0 Normal
05/05/2026 11 AM PDT 4.67 4706 0 Normal
05/05/2026 12 PM PDT 4.67 4706 0 Normal
05/05/2026 01 PM PDT 4.66 4692 - Normal
05/05/2026 02 PM PDT 4.66 4692 0 Normal
05/05/2026 03 PM PDT 4.66 4692 0 Normal
05/05/2026 04 PM PDT 4.66 4692 0 Normal
05/05/2026 05 PM PDT 4.66 4692 0 Normal
05/05/2026 06 PM PDT 4.65 4678 - Normal
05/05/2026 07 PM PDT 4.65 4678 0 Normal
05/05/2026 08 PM PDT 4.65 4678 0 Normal
05/05/2026 09 PM PDT 4.65 4678 0 Normal
05/05/2026 10 PM PDT 4.64 4664 - Normal
05/05/2026 11 PM PDT 4.64 4664 0 Normal
05/06/2026 12 AM PDT 4.64 4664 0 Normal
05/06/2026 01 AM PDT 4.64 4664 0 Normal
05/06/2026 02 AM PDT 4.64 4664 0 Normal
05/06/2026 03 AM PDT 4.63 4650 - Normal
05/06/2026 04 AM PDT 4.63 4650 0 Normal
05/06/2026 05 AM PDT 4.63 4650 0 Normal
05/06/2026 06 AM PDT 4.63 4650 0 Normal
05/06/2026 07 AM PDT 4.63 4650 0 Normal
05/06/2026 08 AM PDT 4.62 4636 - Normal
05/06/2026 09 AM PDT 4.62 4636 0 Normal
05/06/2026 10 AM PDT 4.62 4636 0 Normal
05/06/2026 11 AM PDT 4.62 4636 0 Normal
05/06/2026 12 PM PDT 4.62 4636 0 Normal
05/06/2026 01 PM PDT 4.62 4636 0 Normal
05/06/2026 02 PM PDT 4.62 4636 0 Normal
05/06/2026 03 PM PDT 4.61 4622 - Normal
05/06/2026 04 PM PDT 4.61 4622 0 Normal
05/06/2026 05 PM PDT 4.61 4622 0 Normal
05/06/2026 06 PM PDT 4.61 4622 0 Normal
05/06/2026 07 PM PDT 4.61 4622 0 Normal
05/06/2026 08 PM PDT 4.61 4622 0 Normal
05/06/2026 09 PM PDT 4.61 4622 0 Normal
05/06/2026 10 PM PDT 4.60 4608 - Normal
05/06/2026 11 PM PDT 4.60 4608 0 Normal
05/07/2026 12 AM PDT 4.60 4608 0 Normal
05/07/2026 01 AM PDT 4.60 4608 0 Normal
05/07/2026 02 AM PDT 4.60 4608 0 Normal
05/07/2026 03 AM PDT 4.60 4608 0 Normal
05/07/2026 04 AM PDT 4.59 4594 - Normal
05/07/2026 05 AM PDT 4.59 4594 0 Normal
05/07/2026 06 AM PDT 4.59 4594 0 Normal
05/07/2026 07 AM PDT 4.59 4594 0 Normal
05/07/2026 08 AM PDT 4.59 4594 0 Normal
05/07/2026 09 AM PDT 4.59 4594 0 Normal
05/07/2026 10 AM PDT 4.58 4580 - Normal
05/07/2026 11 AM PDT 4.58 4580 0 Normal
05/07/2026 12 PM PDT 4.58 4580 0 Normal
05/07/2026 01 PM PDT 4.58 4580 0 Normal
05/07/2026 02 PM PDT 4.58 4580 0 Normal
05/07/2026 03 PM PDT 4.58 4580 0 Normal
05/07/2026 04 PM PDT 4.57 4566 - Normal
05/07/2026 05 PM PDT 4.57 4566 0 Normal
05/07/2026 06 PM PDT 4.57 4566 0 Normal
05/07/2026 07 PM PDT 4.57 4566 0 Normal
05/07/2026 08 PM PDT 4.57 4566 0 Normal
05/07/2026 09 PM PDT 4.57 4566 0 Normal
05/07/2026 10 PM PDT 4.57 4566 0 Normal
05/07/2026 11 PM PDT 4.56 4552 - Normal
05/08/2026 12 AM PDT 4.56 4552 0 Normal
05/08/2026 01 AM PDT 4.56 4552 0 Normal
05/08/2026 02 AM PDT 4.56 4552 0 Normal
05/08/2026 03 AM PDT 4.56 4552 0 Normal
05/08/2026 04 AM PDT 4.56 4552 0 Normal
05/08/2026 05 AM PDT 4.55 4538 - Normal
05/08/2026 06 AM PDT 4.55 4538 0 Normal
05/08/2026 07 AM PDT 4.55 4538 0 Normal
05/08/2026 08 AM PDT 4.55 4538 0 Normal
05/08/2026 09 AM PDT 4.55 4538 0 Normal
05/08/2026 10 AM PDT 4.55 4538 0 Normal
05/08/2026 11 AM PDT 4.55 4538 0 Normal
05/08/2026 12 PM PDT 4.54 4524 - Normal
05/08/2026 01 PM PDT 4.54 4524 0 Normal
05/08/2026 02 PM PDT 4.54 4524 0 Normal
05/08/2026 03 PM PDT 4.54 4524 0 Normal
05/08/2026 04 PM PDT 4.54 4524 0 Normal
05/08/2026 05 PM PDT 4.54 4524 0 Normal
05/08/2026 06 PM PDT 4.54 4524 0 Normal
05/08/2026 07 PM PDT 4.53 4511 - Normal
05/08/2026 08 PM PDT 4.53 4511 0 Normal
05/08/2026 09 PM PDT 4.53 4511 0 Normal
05/08/2026 10 PM PDT 4.53 4511 0 Normal
05/08/2026 11 PM PDT 4.53 4511 0 Normal
05/09/2026 12 AM PDT 4.53 4511 0 Normal
05/09/2026 01 AM PDT 4.53 4511 0 Normal
05/09/2026 02 AM PDT 4.53 4511 0 Normal
05/09/2026 03 AM PDT 4.52 4497 - Normal
05/09/2026 04 AM PDT 4.52 4497 0 Normal
05/09/2026 05 AM PDT 4.52 4497 0 Normal
#
# NOTE 1: Stages are rounded to the nearest hundredth (.01) of a foot.
# NOTE 2: Flows are rounded to the nearest (1) cfs.
# NOTE 3: Trends are determined using hourly change in unrounded stage and flow.
# NOTE 4: Maximum Values are determined using unrounded stage and flow.
|